Portada
METAR-TAF:

METAR-TAF

Aeropuertos :

Aeropuerto de Ekaterimburgo-Koltsovo

Ekaterimburgo, Rusia

latitud: 56-50N, longitud: 060-38E, altitud: 237 m

Observación

El informe se hizo hace 33 minutos, a las 10:00 UTC
Viento 10 kt del noroeste
Temperatura 8°C
Humedad 27%
Presión 1020 hPa
Visibilidad 10 km o más
sin nubes por debajo de 1500 m y sin presencia de cumulonimbus.

METAR: USSS 191000Z 31005MPS CAVOK 08/M10 Q1020 R26R/120050 NOSIG RMK QFE744/0992

Hora: 15:33 (10:33 UTC)

Pronóstico

El informe se hizo hace 2 horas y 47 minutos, a las 07:46 UTC
Pronóstico válido del 19 a las 09 UTC al 20 a las 09 UTC
Viento 6 kt del norte-noroeste con ráfagas de 16 kt
Visibilidad 10 km o más
Cielo nuboso a una altura de 1600 ft
Temporalmente
del 19 a las 09 UTC al 19 a las 15 UTC
Viento 14 kt del oeste-noroeste con ráfagas de 29 kt

TAF: USSS 190746Z 1909/2009 33003G08MPS 9999 BKN016 TEMPO 1909/1915 29007G15MPS

Observaciones y pronósticos meteorológicos de más de 4000 aeropuertos (mensajes METAR y TAF).

Los puntos amarillos y rojos representan las estaciones disponibles.

Ponga el ratón en el punto deseado para ver el nombre de la estación.

Haga clic para ver las observaciones y los pronósticos meteorológicos.

Para cambiar el mapa : haga clic en los botones verdes con una cruz de color negro para hacer un zoom, en el botón verde con un guión para alejar o en las flechas verdes para mapas adyacentes.


METAR-TAF: